Time;durP1;ratioP1;P1;durP2;ratioP2;P2;SDS_P1;SDS_P2;PMS_P1;PMS_P2;Temp;Humidity;BMP_temperature;BMP_pressure;BME280_temperature;BME280_humidity;BME280_pressure;Samples;Min_cycle;Max_cycle;Signal;HPM_P1;HPM_P2
2023/12/26 00:00:50;;;;;;;0.32;0.20;;;22.30;42.30;;;;;;4985280;28;20050;-58
2023/12/26 00:03:18;;;;;;;1.10;0.40;;;22.40;42.30;;;;;;4981042;28;20058;-58
2023/12/26 00:05:46;;;;;;;0.32;0.25;;;22.40;42.20;;;;;;4983433;28;20050;-58
2023/12/26 00:08:14;;;;;;;1.75;0.40;;;22.40;42.20;;;;;;4979096;28;20058;-58
2023/12/26 00:10:41;;;;;;;0.38;0.25;;;22.40;42.20;;;;;;4983945;28;20135;-58
2023/12/26 00:13:08;;;;;;;0.28;0.15;;;22.40;42.10;;;;;;4984541;28;20295;-57
2023/12/26 00:15:36;;;;;;;1.00;0.35;;;22.40;42.10;;;;;;4980493;28;20059;-58
2023/12/26 00:18:03;;;;;;;0.68;0.17;;;22.40;42.10;;;;;;4984187;28;20408;-58
2023/12/26 00:20:32;;;;;;;0.25;0.20;;;22.40;42.10;;;;;;4983692;28;20062;-58
2023/12/26 00:22:59;;;;;;;0.35;0.20;;;22.40;42.00;;;;;;4981545;28;20057;-57
2023/12/26 00:25:26;;;;;;;0.73;0.20;;;22.40;42.00;;;;;;4981425;28;20058;-55
2023/12/26 00:27:53;;;;;;;0.73;0.22;;;22.40;42.00;;;;;;4981477;28;20055;-57
2023/12/26 00:30:21;;;;;;;0.40;0.30;;;22.40;42.00;;;;;;4984630;28;20058;-57
2023/12/26 00:32:48;;;;;;;0.20;0.20;;;22.40;42.00;;;;;;4987499;28;20493;-58
2023/12/26 00:35:15;;;;;;;0.73;0.20;;;22.40;42.00;;;;;;4978638;28;20055;-57
2023/12/26 00:37:44;;;;;;;0.30;0.20;;;22.40;42.00;;;;;;4978963;28;20504;-58
2023/12/26 00:40:12;;;;;;;0.82;0.30;;;22.40;41.90;;;;;;4978617;28;20054;-57
2023/12/26 00:42:40;;;;;;;0.43;0.10;;;22.40;42.00;;;;;;4978990;28;20674;-58
2023/12/26 00:45:09;;;;;;;0.25;0.20;;;22.40;42.00;;;;;;4980625;28;20563;-57
2023/12/26 00:47:36;;;;;;;0.73;0.20;;;22.40;42.00;;;;;;4985591;28;20050;-56
2023/12/26 00:50:03;;;;;;;0.22;0.20;;;22.30;41.90;;;;;;4982213;28;20493;-56
2023/12/26 00:52:31;;;;;;;0.52;0.10;;;22.30;42.00;;;;;;4984666;28;20049;-57
2023/12/26 00:55:00;;;;;;;0.52;0.10;;;22.30;41.90;;;;;;4975891;28;20054;-57
2023/12/26 00:57:27;;;;;;;0.10;0.10;;;22.30;41.90;;;;;;4979433;28;20054;-56
2023/12/26 00:59:54;;;;;;;0.20;0.20;;;22.30;42.00;;;;;;4983699;28;20501;-56
2023/12/26 01:02:22;;;;;;;0.03;0.03;;;22.30;42.00;;;;;;4984703;28;20054;-54
2023/12/26 01:04:49;;;;;;;0.15;0.10;;;22.20;42.00;;;;;;4981104;28;20424;-57
2023/12/26 01:07:17;;;;;;;0.13;0.08;;;22.30;42.00;;;;;;4980969;28;20058;-55
2023/12/26 01:09:44;;;;;;;0.20;0.20;;;22.20;42.00;;;;;;4976356;28;20058;-55
2023/12/26 01:12:13;;;;;;;0.30;0.10;;;22.20;41.90;;;;;;4982254;28;20069;-58
2023/12/26 01:14:41;;;;;;;2.35;0.20;;;22.20;41.90;;;;;;4982253;28;20058;-55
2023/12/26 01:17:09;;;;;;;0.50;0.10;;;22.20;41.90;;;;;;4983072;28;20050;-56
2023/12/26 01:19:36;;;;;;;0.10;0.10;;;22.10;41.90;;;;;;4981616;28;20052;-54
2023/12/26 01:22:03;;;;;;;2.03;0.10;;;22.10;41.90;;;;;;4982997;28;20058;-55
2023/12/26 01:24:31;;;;;;;0.10;0.10;;;22.10;41.90;;;;;;4980253;28;20046;-55
2023/12/26 01:26:58;;;;;;;0.25;0.10;;;22.20;42.00;;;;;;4982976;28;20496;-53
2023/12/26 01:29:26;;;;;;;0.47;0.30;;;22.20;42.00;;;;;;4985063;28;20046;-53
2023/12/26 01:31:54;;;;;;;0.25;0.15;;;22.20;41.90;;;;;;4980726;28;20489;-54
2023/12/26 01:34:22;;;;;;;0.73;0.28;;;22.30;41.90;;;;;;4981847;28;20057;-55
2023/12/26 01:36:50;;;;;;;0.10;0.10;;;22.30;41.80;;;;;;4984591;28;20062;-57
2023/12/26 01:39:17;;;;;;;0.32;0.13;;;22.30;41.80;;;;;;4978631;28;20050;-57
2023/12/26 01:41:45;;;;;;;0.47;0.20;;;22.30;41.70;;;;;;4980602;28;20057;-56
2023/12/26 01:44:13;;;;;;;1.05;0.20;;;22.40;41.70;;;;;;4983130;28;20050;-54
2023/12/26 01:46:42;;;;;;;1.90;0.20;;;22.40;41.60;;;;;;4983041;28;20161;-58
2023/12/26 01:49:10;;;;;;;0.98;0.25;;;22.40;41.50;;;;;;4985301;28;20050;-56
2023/12/26 01:51:37;;;;;;;0.70;0.30;;;22.40;41.40;;;;;;4986668;28;20050;-54
2023/12/26 01:54:05;;;;;;;0.40;0.30;;;22.40;41.40;;;;;;4982642;28;20191;-56
2023/12/26 01:56:32;;;;;;;0.80;0.20;;;22.40;41.40;;;;;;4988149;28;20061;-61
2023/12/26 01:59:15;;;;;;;0.30;0.20;;;22.40;41.30;;;;;;4980547;28;20492;-59
2023/12/26 02:01:44;;;;;;;0.57;0.20;;;22.40;41.20;;;;;;4985429;28;20519;-60
2023/12/26 02:04:12;;;;;;;0.70;0.22;;;22.50;41.30;;;;;;4986793;28;20496;-61
2023/12/26 02:06:40;;;;;;;1.13;0.20;;;22.50;41.30;;;;;;4981581;28;20082;-60
2023/12/26 02:09:10;;;;;;;1.42;0.43;;;22.40;41.20;;;;;;4985311;28;20046;-58
2023/12/26 02:11:37;;;;;;;0.30;0.20;;;22.40;41.20;;;;;;4982243;28;20050;-60
2023/12/26 02:14:05;;;;;;;1.23;0.28;;;22.40;41.20;;;;;;4986470;28;20046;-60
2023/12/26 02:16:35;;;;;;;1.75;0.40;;;22.40;41.10;;;;;;4982938;28;20519;-60
2023/12/26 02:19:04;;;;;;;0.90;0.40;;;22.40;41.10;;;;;;4984479;28;20050;-61
2023/12/26 02:21:32;;;;;;;0.47;0.30;;;22.40;41.10;;;;;;4982397;28;20432;-60
2023/12/26 02:24:01;;;;;;;0.28;0.13;;;22.40;41.10;;;;;;4980152;28;20055;-61
2023/12/26 02:26:29;;;;;;;0.13;0.13;;;22.30;41.00;;;;;;4982819;28;20051;-60
2023/12/26 02:28:58;;;;;;;0.30;0.17;;;22.30;41.10;;;;;;4983561;28;20065;-61
2023/12/26 02:31:27;;;;;;;1.10;0.30;;;22.30;41.10;;;;;;4986609;28;20058;-61
2023/12/26 02:33:55;;;;;;;0.40;0.10;;;22.30;41.10;;;;;;4982903;28;20054;-59
2023/12/26 02:36:22;;;;;;;0.40;0.20;;;22.30;41.10;;;;;;4987982;28;20069;-61
2023/12/26 02:38:49;;;;;;;0.35;0.28;;;22.30;41.10;;;;;;4983470;28;20120;-59
2023/12/26 02:41:18;;;;;;;0.68;0.10;;;22.20;41.00;;;;;;4984222;28;20504;-61
2023/12/26 02:43:45;;;;;;;2.65;0.50;;;22.20;41.10;;;;;;4982990;28;20055;-60
2023/12/26 02:46:13;;;;;;;2.03;0.30;;;22.20;41.10;;;;;;4984475;28;20058;-60
2023/12/26 02:48:40;;;;;;;0.55;0.10;;;22.30;41.20;;;;;;4985559;28;20058;-60
2023/12/26 02:51:08;;;;;;;0.68;0.30;;;22.20;41.20;;;;;;4991473;28;20049;-60
2023/12/26 02:53:35;;;;;;;0.50;0.28;;;22.20;41.20;;;;;;4983575;28;20057;-58
2023/12/26 02:56:03;;;;;;;0.57;0.20;;;22.30;41.30;;;;;;4983035;28;20065;-60
2023/12/26 02:58:32;;;;;;;0.50;0.38;;;22.30;41.30;;;;;;4980446;28;20054;-58
2023/12/26 03:00:59;;;;;;;0.70;0.28;;;22.40;41.30;;;;;;4988243;28;20621;-60
2023/12/26 03:03:26;;;;;;;2.58;0.20;;;22.40;41.20;;;;;;4985780;28;20054;-60
2023/12/26 03:05:53;;;;;;;0.40;0.20;;;22.50;41.20;;;;;;4981169;28;20051;-60
2023/12/26 03:08:21;;;;;;;0.68;0.20;;;22.50;41.20;;;;;;4979111;28;20054;-55
2023/12/26 03:10:48;;;;;;;0.43;0.25;;;22.50;41.10;;;;;;4986190;28;20394;-56
2023/12/26 03:13:15;;;;;;;0.38;0.20;;;22.50;41.10;;;;;;4982482;28;20050;-55
2023/12/26 03:15:43;;;;;;;0.22;0.20;;;22.60;41.10;;;;;;4979521;28;20496;-57
2023/12/26 03:18:11;;;;;;;2.97;0.20;;;22.60;41.00;;;;;;4981514;28;20058;-55
2023/12/26 03:20:38;;;;;;;0.98;0.25;;;22.60;41.00;;;;;;4982535;28;20057;-56
2023/12/26 03:23:05;;;;;;;0.65;0.30;;;22.60;41.00;;;;;;4980245;28;20055;-57
2023/12/26 03:25:32;;;;;;;0.70;0.20;;;22.60;40.90;;;;;;4976843;28;20050;-58
2023/12/26 03:28:00;;;;;;;0.20;0.20;;;22.60;40.90;;;;;;4982760;28;20081;-55
2023/12/26 03:30:27;;;;;;;0.85;0.10;;;22.60;40.90;;;;;;4985413;28;20053;-55
2023/12/26 03:32:55;;;;;;;0.20;0.08;;;22.60;40.90;;;;;;4984182;28;20049;-58
2023/12/26 03:35:22;;;;;;;0.50;0.20;;;22.60;40.90;;;;;;4982842;28;20046;-55
2023/12/26 03:37:50;;;;;;;0.20;0.10;;;22.60;40.90;;;;;;4983309;28;20054;-57
2023/12/26 03:40:17;;;;;;;0.52;0.20;;;22.60;40.90;;;;;;4984120;28;20062;-54
2023/12/26 03:42:45;;;;;;;1.13;0.20;;;22.60;40.90;;;;;;4983561;28;20061;-59
2023/12/26 03:45:13;;;;;;;0.32;0.10;;;22.60;40.90;;;;;;4979545;28;20061;-54
2023/12/26 03:47:40;;;;;;;1.58;0.20;;;22.50;41.40;;;;;;4980299;28;20077;-56
2023/12/26 03:50:10;;;;;;;0.68;0.10;;;22.50;40.90;;;;;;4981701;28;20051;-58
2023/12/26 03:52:37;;;;;;;0.10;0.10;;;22.50;40.90;;;;;;4982622;28;20054;-57
2023/12/26 03:55:05;;;;;;;0.10;0.10;;;22.50;40.90;;;;;;4981459;28;20046;-56
2023/12/26 03:57:32;;;;;;;0.60;0.10;;;22.50;40.90;;;;;;4982431;28;20058;-58
2023/12/26 03:59:59;;;;;;;0.30;0.20;;;22.50;41.00;;;;;;4982439;28;20046;-56
2023/12/26 04:02:27;;;;;;;0.40;0.10;;;22.40;40.90;;;;;;4986819;28;20046;-58
2023/12/26 04:04:54;;;;;;;0.22;0.10;;;22.50;41.00;;;;;;4983369;28;20042;-53
2023/12/26 04:07:23;;;;;;;1.77;0.15;;;22.40;41.00;;;;;;4981574;28;20054;-56
2023/12/26 04:09:50;;;;;;;0.20;0.20;;;22.40;41.00;;;;;;4989587;28;20065;-55
2023/12/26 04:12:17;;;;;;;0.70;0.10;;;22.40;41.00;;;;;;4980693;28;20050;-56
2023/12/26 04:14:45;;;;;;;0.10;0.10;;;22.40;41.10;;;;;;4977942;28;20069;-56
2023/12/26 04:17:12;;;;;;;0.60;0.00;;;22.30;41.10;;;;;;4982235;28;20054;-61
2023/12/26 04:19:39;;;;;;;0.10;0.10;;;22.40;41.10;;;;;;4978306;28;20069;-61
2023/12/26 04:22:06;;;;;;;0.28;0.10;;;22.40;41.20;;;;;;4975640;28;20141;-60
2023/12/26 04:24:35;;;;;;;0.17;0.08;;;22.40;41.20;;;;;;4982525;28;20054;-61
2023/12/26 04:27:02;;;;;;;0.50;0.30;;;22.50;41.30;;;;;;4976698;28;20051;-62
2023/12/26 04:29:31;;;;;;;0.28;0.10;;;22.50;41.20;;;;;;4983522;28;20054;-62
2023/12/26 04:31:59;;;;;;;0.25;0.10;;;22.50;41.20;;;;;;4981337;28;20058;-62
2023/12/26 04:34:26;;;;;;;0.43;0.20;;;22.60;41.20;;;;;;4977005;28;20404;-61
2023/12/26 04:36:53;;;;;;;1.25;0.17;;;22.70;41.10;;;;;;4984295;28;20551;-62
2023/12/26 04:39:20;;;;;;;0.10;0.00;;;22.70;41.10;;;;;;4984306;28;20061;-57
2023/12/26 04:41:49;;;;;;;2.30;0.30;;;22.70;41.00;;;;;;4982835;28;20058;-60
2023/12/26 04:44:16;;;;;;;0.57;0.10;;;22.70;41.00;;;;;;4982497;28;20059;-61
2023/12/26 04:46:43;;;;;;;1.02;0.20;;;22.80;41.00;;;;;;4982802;28;20058;-61
2023/12/26 04:49:11;;;;;;;0.35;0.17;;;22.80;40.90;;;;;;4982334;28;20800;-61
2023/12/26 04:51:38;;;;;;;0.00;0.00;;;22.80;40.90;;;;;;4985635;28;20061;-61
2023/12/26 04:54:05;;;;;;;0.20;0.10;;;22.80;40.80;;;;;;4979347;28;20057;-58
2023/12/26 04:56:32;;;;;;;1.60;0.13;;;22.80;40.80;;;;;;4985576;28;20059;-59
2023/12/26 04:59:01;;;;;;;0.17;0.00;;;22.80;40.80;;;;;;4978992;28;20085;-59
2023/12/26 05:01:28;;;;;;;0.20;0.10;;;22.80;40.80;;;;;;4980186;28;20416;-60
2023/12/26 05:03:55;;;;;;;0.75;0.17;;;22.80;40.80;;;;;;4984276;28;20052;-60
2023/12/26 05:06:23;;;;;;;0.43;0.10;;;22.80;40.80;;;;;;4983433;28;20054;-61
2023/12/26 05:08:50;;;;;;;0.73;0.10;;;22.80;40.80;;;;;;4979648;28;20058;-57
2023/12/26 05:11:24;;;;;;;0.25;0.00;;;22.80;40.80;;;;;;4978178;28;20508;-62
2023/12/26 05:13:52;;;;;;;0.00;0.00;;;22.70;40.70;;;;;;4981392;28;20054;-61
2023/12/26 05:16:20;;;;;;;0.47;0.08;;;22.80;40.80;;;;;;4980128;28;20073;-59
2023/12/26 05:18:48;;;;;;;0.20;0.05;;;22.70;40.80;;;;;;4980560;28;20417;-59
2023/12/26 05:21:19;;;;;;;0.03;0.00;;;22.70;40.80;;;;;;4979951;28;20390;-57
2023/12/26 05:23:46;;;;;;;0.75;0.10;;;22.70;40.70;;;;;;4976550;28;20058;-60
2023/12/26 05:26:14;;;;;;;0.85;0.15;;;22.70;40.80;;;;;;4980142;28;20531;-61
2023/12/26 05:28:41;;;;;;;0.73;0.20;;;22.70;40.80;;;;;;4979896;28;20054;-57
2023/12/26 05:31:09;;;;;;;1.17;0.10;;;22.60;40.70;;;;;;4978796;28;20061;-60
2023/12/26 05:33:38;;;;;;;0.70;0.20;;;22.70;40.80;;;;;;4982048;28;20054;-58
2023/12/26 05:36:06;;;;;;;2.75;0.20;;;22.60;40.80;;;;;;4984844;28;20069;-59
2023/12/26 05:38:36;;;;;;;2.00;0.13;;;22.60;40.80;;;;;;4976052;28;20093;-58
2023/12/26 05:41:04;;;;;;;3.83;0.22;;;22.60;40.70;;;;;;4983557;28;20058;-59
2023/12/26 05:43:32;;;;;;;2.67;0.13;;;22.60;40.70;;;;;;4999184;28;20059;-59
2023/12/26 05:46:01;;;;;;;3.42;0.20;;;22.60;40.80;;;;;;4986433;28;20053;-59
2023/12/26 05:48:28;;;;;;;0.10;0.00;;;22.50;40.70;;;;;;4985798;28;20405;-59
2023/12/26 05:50:57;;;;;;;3.00;0.10;;;22.60;40.80;;;;;;4938631;28;20049;-58
2023/12/26 05:53:29;;;;;;;1.48;0.20;;;22.50;40.80;;;;;;4984156;28;20054;-57
2023/12/26 05:55:56;;;;;;;8.90;0.40;;;22.50;40.80;;;;;;4978643;28;20428;-58
2023/12/26 05:58:23;;;;;;;2.17;0.13;;;22.50;40.90;;;;;;4984967;28;20077;-59
2023/12/26 06:00:51;;;;;;;0.00;0.00;;;22.50;40.90;;;;;;4984607;28;20058;-58
2023/12/26 06:03:18;;;;;;;5.40;0.32;;;22.50;40.90;;;;;;4982947;28;20055;-58
2023/12/26 06:05:46;;;;;;;2.10;0.25;;;22.40;40.90;;;;;;4982673;28;20057;-59
2023/12/26 06:08:15;;;;;;;3.58;1.02;;;22.40;41.00;;;;;;4981597;28;20061;-58
2023/12/26 06:10:42;;;;;;;6.32;0.80;;;22.50;41.10;;;;;;4983353;28;20065;-59
2023/12/26 06:13:10;;;;;;;3.47;0.30;;;22.40;41.20;;;;;;4984628;28;20480;-59
2023/12/26 06:15:37;;;;;;;1.52;0.32;;;22.50;41.30;;;;;;4980158;28;20050;-61
2023/12/26 06:18:05;;;;;;;0.38;0.25;;;22.50;41.30;;;;;;4978618;28;20607;-59
2023/12/26 06:20:32;;;;;;;2.13;0.60;;;22.60;41.30;;;;;;4980619;28;20069;-59
2023/12/26 06:22:59;;;;;;;6.38;0.40;;;22.60;41.30;;;;;;4979207;28;20423;-58
2023/12/26 06:25:28;;;;;;;0.80;0.55;;;22.70;41.30;;;;;;4982567;28;20051;-58
2023/12/26 06:27:55;;;;;;;3.00;1.80;;;22.70;41.20;;;;;;4981758;28;20058;-58
2023/12/26 06:30:22;;;;;;;18.25;3.97;;;22.80;41.20;;;;;;4986877;28;20398;-58
2023/12/26 06:32:49;;;;;;;5.70;2.90;;;22.80;41.10;;;;;;4986977;28;20050;-59
2023/12/26 06:35:16;;;;;;;8.50;3.47;;;22.90;41.10;;;;;;4986226;28;20428;-59
2023/12/26 06:37:44;;;;;;;5.82;2.90;;;23.00;41.10;;;;;;4986939;28;20050;-57
2023/12/26 06:40:12;;;;;;;3.30;2.30;;;23.00;41.10;;;;;;4988212;28;20511;-59
2023/12/26 06:42:40;;;;;;;4.95;2.15;;;23.00;41.00;;;;;;4978164;28;20058;-58
2023/12/26 06:45:08;;;;;;;3.55;1.98;;;23.10;41.50;;;;;;4986167;28;20046;-59
2023/12/26 06:47:35;;;;;;;7.40;1.95;;;23.10;40.90;;;;;;4981145;28;20050;-59
2023/12/26 06:50:02;;;;;;;7.25;4.22;;;23.10;40.90;;;;;;4983775;28;20509;-57
2023/12/26 06:52:30;;;;;;;12.07;7.55;;;23.10;41.40;;;;;;4986780;28;20061;-58
2023/12/26 06:54:57;;;;;;;19.60;8.88;;;23.10;40.90;;;;;;4989262;28;20057;-60
2023/12/26 06:57:25;;;;;;;9.98;5.95;;;23.10;40.80;;;;;;4984875;28;20527;-60
2023/12/26 06:59:53;;;;;;;6.47;4.18;;;23.20;40.80;;;;;;4988310;28;20485;-59
2023/12/26 07:02:21;;;;;;;7.43;4.47;;;23.10;40.70;;;;;;4983053;28;20061;-59
2023/12/26 07:04:48;;;;;;;10.05;5.28;;;23.20;40.80;;;;;;4989264;28;20074;-59
2023/12/26 07:07:15;;;;;;;5.35;3.22;;;23.10;40.70;;;;;;4985289;28;20058;-59
2023/12/26 07:09:42;;;;;;;7.28;2.90;;;23.10;40.70;;;;;;4986865;28;20054;-60
2023/12/26 07:12:10;;;;;;;8.10;2.72;;;23.10;40.70;;;;;;4981968;28;20073;-59
2023/12/26 07:14:37;;;;;;;4.15;2.50;;;23.10;40.70;;;;;;4983783;28;20061;-59
2023/12/26 07:17:06;;;;;;;9.50;2.80;;;23.10;40.60;;;;;;4980453;28;20519;-57
2023/12/26 07:19:33;;;;;;;6.10;2.30;;;23.10;40.60;;;;;;4985438;28;20408;-58
2023/12/26 07:22:00;;;;;;;4.32;1.58;;;23.00;40.60;;;;;;4985935;28;20054;-57
2023/12/26 07:24:27;;;;;;;3.97;1.77;;;23.10;40.60;;;;;;4981865;28;20505;-57
2023/12/26 07:26:55;;;;;;;7.03;1.83;;;23.00;40.50;;;;;;4981366;28;20399;-56
2023/12/26 07:29:23;;;;;;;10.00;2.25;;;23.00;40.60;;;;;;4978466;28;20050;-57
2023/12/26 07:31:52;;;;;;;2.72;1.42;;;23.00;40.60;;;;;;4982215;28;20448;-58
2023/12/26 07:34:21;;;;;;;11.23;1.58;;;23.00;40.50;;;;;;4981418;28;20061;-58
2023/12/26 07:36:49;;;;;;;7.22;1.65;;;23.00;40.60;;;;;;4986575;28;20053;-58
2023/12/26 07:39:18;;;;;;;9.25;2.00;;;23.00;40.60;;;;;;4981100;28;20055;-59
2023/12/26 07:41:46;;;;;;;7.70;1.80;;;22.90;40.50;;;;;;4982387;28;20124;-58
2023/12/26 07:44:13;;;;;;;3.88;1.67;;;22.90;40.60;;;;;;4984683;28;20064;-59
2023/12/26 07:46:41;;;;;;;4.60;1.30;;;22.90;40.60;;;;;;4981178;28;20055;-56
2023/12/26 07:49:09;;;;;;;7.78;2.22;;;22.80;40.50;;;;;;4978896;28;20051;-57
2023/12/26 07:51:38;;;;;;;8.30;2.10;;;22.80;40.60;;;;;;4978494;28;20511;-57
2023/12/26 07:54:05;;;;;;;4.93;1.90;;;22.80;40.60;;;;;;4983588;28;20057;-57
2023/12/26 07:56:33;;;;;;;3.40;1.50;;;22.80;40.60;;;;;;4978671;28;20365;-57
2023/12/26 07:59:00;;;;;;;7.10;1.70;;;22.80;40.60;;;;;;4977771;28;20523;-58
2023/12/26 08:01:27;;;;;;;5.32;1.30;;;22.80;40.60;;;;;;4989369;28;20483;-57
2023/12/26 08:03:54;;;;;;;4.78;1.70;;;22.70;40.60;;;;;;4977414;28;20498;-55
2023/12/26 08:06:23;;;;;;;4.55;1.90;;;22.70;40.70;;;;;;4980838;28;20416;-57
2023/12/26 08:08:52;;;;;;;5.40;1.63;;;22.70;40.80;;;;;;4989121;28;20058;-57
2023/12/26 08:11:20;;;;;;;4.53;1.70;;;22.70;40.80;;;;;;4986186;28;20081;-54
2023/12/26 08:13:47;;;;;;;9.52;5.28;;;22.70;40.90;;;;;;4977846;28;21057;-55
2023/12/26 08:16:14;;;;;;;34.22;18.17;;;22.80;40.90;;;;;;4981911;28;20061;-57
2023/12/26 08:18:42;;;;;;;29.10;12.13;;;22.80;41.00;;;;;;4978133;28;20050;-58
2023/12/26 08:21:09;;;;;;;27.02;14.88;;;22.80;41.00;;;;;;4981133;28;20409;-57
2023/12/26 08:23:36;;;;;;;27.83;14.32;;;22.90;41.10;;;;;;4980408;28;20077;-59
2023/12/26 08:26:06;;;;;;;22.30;13.25;;;23.00;41.10;;;;;;4983690;28;20077;-57
2023/12/26 08:28:33;;;;;;;24.17;11.68;;;23.00;40.90;;;;;;4979024;28;20058;-61
2023/12/26 08:31:01;;;;;;;17.35;9.82;;;23.10;40.90;;;;;;4983318;28;20053;-59
2023/12/26 08:33:29;;;;;;;14.05;8.48;;;23.10;40.90;;;;;;4981524;28;20058;-60
2023/12/26 08:35:56;;;;;;;12.55;7.72;;;23.20;40.80;;;;;;4979825;28;20058;-58
2023/12/26 08:38:24;;;;;;;16.55;8.80;;;23.20;40.80;;;;;;4985289;28;20061;-62
2023/12/26 08:40:51;;;;;;;16.98;8.20;;;23.20;40.70;;;;;;4984989;28;20054;-58
2023/12/26 08:43:19;;;;;;;18.80;8.13;;;23.30;40.80;;;;;;4980790;28;20058;-57
2023/12/26 08:45:47;;;;;;;20.75;7.72;;;23.30;40.80;;;;;;4981415;28;20500;-58
2023/12/26 08:48:14;;;;;;;15.18;6.95;;;23.30;40.80;;;;;;4983664;28;20398;-57
2023/12/26 08:50:41;;;;;;;10.98;5.85;;;23.30;40.70;;;;;;4982377;28;20061;-56
2023/12/26 08:53:08;;;;;;;8.93;4.10;;;23.30;40.60;;;;;;4981983;28;20476;-55
2023/12/26 08:55:36;;;;;;;9.25;4.20;;;23.40;40.60;;;;;;4982150;28;20046;-56
2023/12/26 08:58:03;;;;;;;14.15;3.55;;;23.30;40.50;;;;;;4977239;28;20073;-56
2023/12/26 09:00:31;;;;;;;9.07;3.53;;;23.40;40.40;;;;;;4983936;28;20054;-56
2023/12/26 09:02:58;;;;;;;10.15;2.70;;;23.40;40.20;;;;;;4985635;28;20058;-57
2023/12/26 09:05:25;;;;;;;11.73;2.53;;;23.30;40.10;;;;;;4981592;28;20061;-58
2023/12/26 09:07:53;;;;;;;25.42;2.70;;;23.30;40.00;;;;;;4976521;28;20051;-57
2023/12/26 09:10:20;;;;;;;12.48;3.28;;;23.30;39.90;;;;;;4984850;28;20104;-56
2023/12/26 09:12:47;;;;;;;31.75;17.83;;;23.30;39.70;;;;;;4975799;28;20405;-56
2023/12/26 09:15:14;;;;;;;69.03;27.63;;;23.30;39.60;;;;;;4979429;28;20065;-57
2023/12/26 09:17:43;;;;;;;87.75;43.03;;;23.20;39.50;;;;;;4983207;28;20049;-55
2023/12/26 09:20:11;;;;;;;182.18;87.95;;;23.20;39.40;;;;;;4981490;28;20409;-56
2023/12/26 09:22:38;;;;;;;186.25;88.70;;;23.20;39.60;;;;;;4980987;28;20046;-54
2023/12/26 09:25:07;;;;;;;187.65;93.13;;;23.20;39.40;;;;;;4986406;28;20050;-57
2023/12/26 09:27:34;;;;;;;162.50;82.85;;;23.10;39.50;;;;;;4981517;28;20416;-56
2023/12/26 09:30:01;;;;;;;149.50;72.10;;;23.10;39.50;;;;;;4979619;28;20050;-55
2023/12/26 09:32:29;;;;;;;118.40;58.80;;;23.10;39.50;;;;;;4983531;28;20390;-57
2023/12/26 09:34:57;;;;;;;129.68;59.03;;;23.10;39.60;;;;;;4978820;28;20054;-57
2023/12/26 09:37:24;;;;;;;126.25;59.45;;;23.00;39.60;;;;;;4979459;28;20047;-56
2023/12/26 09:39:52;;;;;;;116.38;53.55;;;23.00;39.70;;;;;;4986626;28;20051;-57
2023/12/26 09:42:22;;;;;;;82.57;41.47;;;23.00;39.70;;;;;;4988417;28;20065;-56
2023/12/26 09:44:50;;;;;;;72.72;37.47;;;23.00;39.60;;;;;;4982679;28;20051;-55
2023/12/26 09:47:19;;;;;;;70.80;35.85;;;22.90;39.60;;;;;;4984110;28;20050;-57
2023/12/26 09:49:47;;;;;;;64.80;31.77;;;22.90;39.70;;;;;;4977422;28;20056;-55
2023/12/26 09:52:16;;;;;;;55.47;28.13;;;22.80;39.50;;;;;;4987279;28;20068;-56
2023/12/26 09:54:45;;;;;;;53.53;25.23;;;22.80;39.60;;;;;;4977414;28;20635;-57
2023/12/26 09:57:14;;;;;;;47.75;24.40;;;22.80;39.60;;;;;;4976895;28;20396;-57
2023/12/26 09:59:43;;;;;;;51.28;24.08;;;22.80;39.60;;;;;;4981349;28;20047;-56
2023/12/26 10:02:12;;;;;;;49.65;24.08;;;22.70;39.60;;;;;;4982471;28;20059;-56
2023/12/26 10:04:40;;;;;;;34.03;18.95;;;22.70;39.70;;;;;;4991353;28;20050;-57
2023/12/26 10:07:09;;;;;;;33.28;17.85;;;22.70;39.70;;;;;;4990323;28;20053;-56
2023/12/26 10:09:37;;;;;;;39.95;17.08;;;22.70;39.70;;;;;;4982561;28;20063;-56
2023/12/26 10:12:05;;;;;;;34.88;17.48;;;22.60;39.70;;;;;;4984555;28;20047;-56
2023/12/26 10:14:33;;;;;;;35.85;18.58;;;22.60;39.80;;;;;;4984548;28;20081;-56
2023/12/26 10:17:00;;;;;;;31.50;16.90;;;22.70;39.90;;;;;;4990450;28;20047;-56
2023/12/26 10:19:27;;;;;;;31.42;16.48;;;22.60;40.20;;;;;;4984912;28;20078;-56
2023/12/26 10:21:54;;;;;;;25.98;13.30;;;22.70;40.00;;;;;;4991277;28;20046;-55
2023/12/26 10:24:22;;;;;;;24.38;12.63;;;22.70;40.00;;;;;;4985922;28;20523;-56
2023/12/26 10:26:51;;;;;;;21.23;11.32;;;22.80;40.50;;;;;;4990351;28;20058;-56
2023/12/26 10:29:18;;;;;;;19.10;9.60;;;22.90;40.00;;;;;;4985116;28;20061;-56
2023/12/26 10:31:45;;;;;;;18.77;9.38;;;22.80;39.90;;;;;;4991008;28;20050;-53
2023/12/26 10:34:14;;;;;;;17.60;8.93;;;22.90;39.90;;;;;;4985927;28;20066;-56
2023/12/26 10:36:43;;;;;;;19.67;8.85;;;23.00;39.90;;;;;;4984961;28;20057;-56
2023/12/26 10:39:11;;;;;;;15.85;8.40;;;23.00;39.80;;;;;;4983021;28;20054;-55
2023/12/26 10:41:42;;;;;;;15.27;8.05;;;23.00;39.70;;;;;;4986313;28;20101;-56
2023/12/26 10:44:11;;;;;;;14.52;6.88;;;23.00;39.70;;;;;;4988870;28;20057;-56
2023/12/26 10:46:40;;;;;;;11.65;5.85;;;23.00;39.70;;;;;;4985564;28;20065;-56
2023/12/26 10:49:10;;;;;;;13.90;6.60;;;23.00;39.60;;;;;;4986484;28;20508;-56
2023/12/26 10:51:40;;;;;;;9.13;5.15;;;23.10;39.70;;;;;;4986320;28;20057;-53
2023/12/26 10:54:15;;;;;;;8.80;5.10;;;23.10;39.60;;;;;;4987195;28;20051;-56
2023/12/26 10:56:43;;;;;;;9.07;4.40;;;23.10;39.50;;;;;;4983516;28;20516;-56
2023/12/26 10:59:13;;;;;;;9.70;4.13;;;23.10;39.40;;;;;;4985430;28;20054;-56
2023/12/26 11:01:39;;;;;;;6.80;3.70;;;23.00;39.40;;;;;;4986732;28;20061;-57
2023/12/26 11:04:06;;;;;;;7.18;3.97;;;23.00;39.40;;;;;;4984618;28;20046;-56
2023/12/26 11:06:34;;;;;;;5.93;3.15;;;23.00;39.40;;;;;;4984983;28;20042;-56
2023/12/26 11:09:01;;;;;;;6.53;2.80;;;23.00;39.30;;;;;;4984934;28;20046;-55
2023/12/26 11:11:27;;;;;;;5.45;2.90;;;23.00;39.30;;;;;;4977802;28;20059;-54
2023/12/26 11:13:55;;;;;;;5.65;2.58;;;23.00;39.30;;;;;;4982252;28;20050;-55
2023/12/26 11:16:23;;;;;;;5.82;2.05;;;23.00;39.30;;;;;;4986660;28;20055;-55
2023/12/26 11:18:49;;;;;;;5.80;2.10;;;23.00;39.30;;;;;;4986822;28;20054;-55
2023/12/26 11:21:17;;;;;;;5.10;2.15;;;23.00;39.30;;;;;;4980310;28;20047;-52
2023/12/26 11:23:45;;;;;;;7.07;2.40;;;23.00;39.30;;;;;;4985551;28;20051;-57
2023/12/26 11:26:12;;;;;;;5.22;1.70;;;22.90;39.20;;;;;;4988467;28;20073;-57
2023/12/26 11:28:42;;;;;;;5.50;1.60;;;22.90;39.20;;;;;;4987770;28;20062;-57
2023/12/26 11:31:12;;;;;;;4.07;1.70;;;22.90;39.20;;;;;;4986834;28;20065;-58
2023/12/26 11:33:40;;;;;;;7.07;1.85;;;22.90;39.10;;;;;;4980124;28;20061;-57
2023/12/26 11:36:09;;;;;;;3.53;1.60;;;22.90;39.10;;;;;;4981596;28;20126;-58
2023/12/26 11:38:36;;;;;;;4.75;1.40;;;22.80;39.10;;;;;;4987145;28;20499;-58
2023/12/26 11:41:05;;;;;;;5.78;1.65;;;22.80;39.10;;;;;;4978768;28;20043;-57
2023/12/26 11:43:33;;;;;;;4.40;1.52;;;22.80;39.10;;;;;;4980123;28;20061;-58
2023/12/26 11:46:00;;;;;;;5.15;1.65;;;22.80;39.20;;;;;;4985127;28;20050;-58
2023/12/26 11:48:26;;;;;;;6.07;1.52;;;22.70;39.10;;;;;;4979326;28;20050;-56
2023/12/26 11:50:55;;;;;;;3.58;1.20;;;22.70;39.20;;;;;;4986104;28;20053;-58
2023/12/26 11:53:21;;;;;;;6.50;1.50;;;22.70;39.20;;;;;;4986362;28;20062;-58
2023/12/26 11:55:48;;;;;;;5.55;1.77;;;22.70;39.70;;;;;;4984040;28;20058;-57
2023/12/26 11:58:15;;;;;;;3.92;1.45;;;22.60;39.20;;;;;;4977738;28;20055;-58
2023/12/26 12:00:41;;;;;;;6.00;1.40;;;22.60;39.20;;;;;;4979106;28;20050;-58
2023/12/26 12:03:07;;;;;;;3.45;1.45;;;22.60;39.30;;;;;;4974960;28;20369;-58
2023/12/26 12:05:35;;;;;;;6.65;1.40;;;22.60;39.30;;;;;;4977832;28;20051;-58
2023/12/26 12:08:11;;;;;;;3.67;1.55;;;22.60;39.30;;;;;;4983509;28;20050;-58
2023/12/26 12:10:59;;;;;;;4.72;1.45;;;22.50;39.20;;;;;;4982223;28;20058;-58
2023/12/26 12:13:25;;;;;;;4.43;1.15;;;22.50;39.30;;;;;;4980744;28;20050;-58
2023/12/26 12:15:52;;;;;;;4.18;1.33;;;22.50;39.40;;;;;;4983593;28;20496;-58
2023/12/26 12:18:20;;;;;;;3.25;1.17;;;22.50;39.40;;;;;;4983253;28;20057;-56
2023/12/26 12:20:49;;;;;;;5.63;1.35;;;22.50;39.50;;;;;;4978266;28;20051;-58
2023/12/26 12:23:16;;;;;;;2.60;1.15;;;22.60;39.60;;;;;;4981144;28;20047;-58
2023/12/26 12:25:43;;;;;;;2.80;1.40;;;22.60;39.70;;;;;;4983286;28;20054;-58
2023/12/26 12:28:10;;;;;;;4.07;1.13;;;22.70;39.70;;;;;;4977249;28;20054;-55
2023/12/26 12:30:36;;;;;;;4.10;1.30;;;22.70;39.60;;;;;;4981972;28;20061;-56
2023/12/26 12:33:20;;;;;;;4.53;1.52;;;22.80;39.70;;;;;;4984745;28;20046;-56
2023/12/26 12:35:47;;;;;;;3.88;1.35;;;22.80;39.60;;;;;;4990092;28;20050;-57
2023/12/26 12:38:16;;;;;;;3.88;1.27;;;23.00;39.70;;;;;;4982415;28;20054;-56
2023/12/26 12:40:46;;;;;;;4.60;1.30;;;23.00;39.60;;;;;;4976132;28;20050;-56
2023/12/26 12:43:12;;;;;;;3.97;1.30;;;23.00;39.50;;;;;;4979848;28;20405;-56
2023/12/26 12:45:38;;;;;;;5.25;1.58;;;23.10;39.40;;;;;;4982276;28;20053;-55